Elk Horn, Idaho
Current Conditions -  °F | °C
As of 4:55 AM on Thursday 23 Oct 2014 (Local Time) from KSUN Reporting Station
Overcast Overcast  
Wind Chill: 41°   Ceiling: 10000
Heat Index: 45°   Visibility: 10mi
Dew Point: 36°   Wind: 7mph
Humidity: 71%   Direction: 320°NW
Pressure: 30.1"   Gusts: 10mph
Location:  43.6966°N, 114.35°W
Report Text: KSUN 231055Z AUTO 32006G09KT 10SM OVC100 07/02 A3010 RMK AO2 LTG DSNT W
Loading
Personal Weather Stations






























Interactive Weather Map New forecast layout! Learn more

10-Day Weather Forecast

Advertisements
Track Severe Weather on mobile